メインページ
METAR-TAF:

METAR-TAF

空港 :

ピッツバーグ, ペンシルバニア州, アメリカ合衆国

ピッツバーグ国際空港

緯度: 40-30-14N, 経度: 080-15-59W, 海抜: 366m

現時点の気象観測

当レポートは47分前の14:51(UTC)に作成
南東の風 9kt
気温 17°C
湿度 42%
気圧 1025 hPa
視程: 16.1km
高度25000ftの千切れ雲あり

METAR: KPIT 231451Z 13009KT 10SM BKN250 17/04 A3028 RMK AO2 SLP260 T01720044 58005

時間: 11:38 (15:38 UTC)

予報

当レポートは41分前の14:57(UTC)に作成
予報は23日の 15時(UTC)から 24日の 18時(UTC)まで有効
南東の風 10kt、最大18ktの突風を伴う
視程: 10km
高度25000ftの千切れ雲あり
24日の 0100時(UTC)から
東/南東の風 9kt
視程: 10km
高度10000ftの千切れ雲あり
24日の 1300時(UTC)から
東/南東の風 10kt
視程: 10km
高度3500ftの曇り
小雨

TAF: KPIT 231457Z 2315/2418 13010G18KT P6SM BKN250 FM240100 12009KT P6SM BKN100 FM241300 11010KT P6SM -RA OVC035

4,000以上の空港の気象観測と天気予報(METAR報とTAF報)

利用可能な観測所は地図上に黄色い丸と赤い丸で示す。

丸の上にカーソルを重ねると観測所名を参照できる。

次にクリックすると気象観測と天気予報を参照できる。

マップの切り替え:黒色「×」印の緑ボタンをクリックして拡大、「-」印の緑ボタンをクリックして縮小、緑色の三角印をクリックして隣りの地図に切り替え


METAR-TAF: